createdAt,value
2017-08-09T00:00:38.537Z,0
2017-08-09T00:01:38.215Z,0
2017-08-09T00:02:38.841Z,0
2017-08-09T00:03:38.866Z,0
2017-08-09T00:04:38.818Z,0
2017-08-09T00:05:38.858Z,0
2017-08-09T00:06:38.821Z,0
2017-08-09T00:07:38.828Z,0
2017-08-09T00:08:38.842Z,0
2017-08-09T00:09:38.854Z,0
2017-08-09T00:10:38.844Z,0
2017-08-09T00:11:38.522Z,0
2017-08-09T00:12:38.826Z,0
2017-08-09T00:13:38.827Z,0
2017-08-09T00:14:39.139Z,0
2017-08-09T00:15:38.830Z,0
2017-08-09T00:16:38.833Z,0
2017-08-09T00:17:38.199Z,0
2017-08-09T00:18:38.832Z,0
2017-08-09T00:19:38.810Z,0
2017-08-09T00:20:38.828Z,0
2017-08-09T00:21:38.815Z,0
2017-08-09T00:22:38.525Z,0
2017-08-09T00:23:38.529Z,0
2017-08-09T00:24:38.818Z,0
2017-08-09T00:25:37.889Z,0
2017-08-09T00:26:38.497Z,0
2017-08-09T00:27:38.804Z,0
2017-08-09T00:28:38.509Z,0
2017-08-09T00:29:38.808Z,0
2017-08-09T00:30:38.818Z,0
2017-08-09T00:31:38.803Z,0
2017-08-09T00:32:38.821Z,0
2017-08-09T00:33:38.488Z,0
2017-08-09T00:34:38.811Z,0
2017-08-09T00:35:38.185Z,0
2017-08-09T00:36:38.811Z,0
2017-08-09T00:37:38.794Z,0
2017-08-09T00:38:38.199Z,0
2017-08-09T00:39:38.177Z,0
2017-08-09T00:40:38.799Z,0
2017-08-09T00:41:38.179Z,0
2017-08-09T00:42:38.802Z,0
2017-08-09T00:43:38.490Z,0
2017-08-09T00:44:38.487Z,0
2017-08-09T00:45:38.805Z,0
2017-08-09T00:46:38.787Z,0
2017-08-09T00:47:38.181Z,0
2017-08-09T00:48:38.788Z,0
2017-08-09T00:49:38.488Z,0
2017-08-09T00:50:38.794Z,0
2017-08-09T00:51:38.490Z,0
2017-08-09T00:52:38.785Z,0
2017-08-09T00:53:38.805Z,0
2017-08-09T00:54:38.758Z,0
2017-08-09T00:55:38.786Z,0
2017-08-09T00:56:38.477Z,0
2017-08-09T00:57:38.764Z,0
2017-08-09T00:58:38.466Z,0
2017-08-09T00:59:38.162Z,0
2017-08-09T01:00:38.787Z,0
2017-08-09T01:01:38.798Z,0
2017-08-09T01:02:38.462Z,0
2017-08-09T01:03:38.472Z,0
2017-08-09T01:04:38.778Z,0
2017-08-09T01:05:38.785Z,0
2017-08-09T01:06:38.771Z,0
2017-08-09T01:07:38.777Z,0
2017-08-09T01:08:38.781Z,0
2017-08-09T01:09:38.754Z,0
2017-08-09T01:10:38.775Z,0
2017-08-09T01:11:38.775Z,0
2017-08-09T01:12:38.458Z,0
2017-08-09T01:13:38.456Z,0
2017-08-09T01:14:38.755Z,0
2017-08-09T01:15:38.456Z,0
2017-08-09T01:16:38.801Z,0
2017-08-09T01:17:38.465Z,0
2017-08-09T01:18:38.766Z,0
2017-08-09T01:19:38.760Z,0
2017-08-09T01:20:38.809Z,0
2017-08-09T01:21:38.134Z,0
2017-08-09T01:22:38.440Z,0
2017-08-09T01:23:38.135Z,0
2017-08-09T01:24:38.126Z,0
2017-08-09T01:25:38.740Z,0
2017-08-09T01:26:38.456Z,0
2017-08-09T01:27:38.957Z,0
2017-08-09T01:28:38.745Z,0
2017-08-09T01:29:38.427Z,0
2017-08-09T01:30:38.428Z,0
2017-08-09T01:31:38.760Z,0
2017-08-09T01:32:38.736Z,0
2017-08-09T01:33:38.161Z,0
2017-08-09T01:34:38.740Z,0
2017-08-09T01:35:38.127Z,0
2017-08-09T01:36:38.109Z,0
2017-08-09T01:37:38.127Z,0
2017-08-09T01:38:38.108Z,0
2017-08-09T01:39:38.425Z,0
2017-08-09T01:40:38.114Z,0
2017-08-09T01:41:38.122Z,0
2017-08-09T01:42:38.719Z,0
2017-08-09T01:43:38.734Z,0
2017-08-09T01:44:38.421Z,0
2017-08-09T01:45:38.425Z,0
2017-08-09T01:46:38.703Z,0
2017-08-09T01:47:38.418Z,0
2017-08-09T01:48:38.731Z,0
2017-08-09T01:49:38.728Z,0
2017-08-09T01:50:38.082Z,0
2017-08-09T01:51:38.713Z,0
2017-08-09T01:52:38.708Z,0
2017-08-09T01:53:38.719Z,0
2017-08-09T01:54:38.701Z,0
2017-08-09T01:55:38.729Z,0
2017-08-09T01:56:38.698Z,0
2017-08-09T01:57:38.414Z,0
2017-08-09T01:58:38.395Z,0
2017-08-09T01:59:38.399Z,0
2017-08-09T02:00:38.383Z,0
2017-08-09T02:01:38.714Z,0
2017-08-09T02:02:38.717Z,0
2017-08-09T02:03:38.711Z,0
2017-08-09T02:04:38.696Z,0
2017-08-09T02:05:38.079Z,0
2017-08-09T02:06:38.085Z,0
2017-08-09T02:07:38.385Z,0
2017-08-09T02:08:38.392Z,0
2017-08-09T02:09:38.063Z,0
2017-08-09T02:10:38.383Z,0
2017-08-09T02:11:38.361Z,0
2017-08-09T02:12:38.373Z,0
2017-08-09T02:13:38.074Z,0
2017-08-09T02:14:38.050Z,0
2017-08-09T02:15:38.366Z,0
2017-08-09T02:16:38.654Z,0
2017-08-09T02:17:38.090Z,0
2017-08-09T02:18:38.382Z,0
2017-08-09T02:19:38.351Z,0
2017-08-09T02:20:38.362Z,0
2017-08-09T02:21:38.364Z,0
2017-08-09T02:22:38.368Z,0
2017-08-09T02:23:38.343Z,0
2017-08-09T02:24:38.358Z,0
2017-08-09T02:25:38.635Z,0
2017-08-09T02:26:38.352Z,0
2017-08-09T02:27:38.343Z,0
2017-08-09T02:28:38.360Z,0
2017-08-09T02:29:38.666Z,0
2017-08-09T02:30:38.355Z,0
2017-08-09T02:31:38.649Z,0
2017-08-09T02:32:38.653Z,0
2017-08-09T02:33:38.623Z,0
2017-08-09T02:34:38.628Z,0
2017-08-09T02:35:38.636Z,0
2017-08-09T02:36:38.343Z,0
2017-08-09T02:37:38.628Z,0
2017-08-09T02:38:38.636Z,0
2017-08-09T02:39:38.324Z,0
2017-08-09T02:40:38.328Z,0
2017-08-09T02:41:38.619Z,0
2017-08-09T02:42:38.651Z,0
2017-08-09T02:43:38.292Z,0
2017-08-09T02:44:38.616Z,0
2017-08-09T02:45:38.605Z,0
2017-08-09T02:46:38.311Z,0
2017-08-09T02:47:38.293Z,0
2017-08-09T02:48:38.623Z,0
2017-08-09T02:49:38.585Z,0
2017-08-09T02:50:38.602Z,0
2017-08-09T02:51:38.600Z,0
2017-08-09T02:52:38.606Z,0
2017-08-09T02:53:38.583Z,0
2017-08-09T02:54:38.608Z,0
2017-08-09T02:55:38.607Z,0
2017-08-09T02:56:38.587Z,0
2017-08-09T02:57:38.573Z,0
2017-08-09T02:58:38.283Z,0
2017-08-09T02:59:38.573Z,0
2017-08-09T03:00:38.618Z,0
2017-08-09T03:01:38.262Z,0
2017-08-09T03:02:38.586Z,0
2017-08-09T03:03:38.569Z,0
2017-08-09T03:04:38.242Z,0
2017-08-09T03:05:38.257Z,0
2017-08-09T03:06:38.562Z,0
2017-08-09T03:07:38.564Z,0
2017-08-09T03:08:38.571Z,4
2017-08-09T03:09:38.545Z,0
2017-08-09T03:10:38.574Z,4
2017-08-09T03:11:38.244Z,4
2017-08-09T03:12:38.246Z,8
2017-08-09T03:13:38.220Z,4
2017-08-09T03:14:38.240Z,4
2017-08-09T03:15:38.219Z,8
2017-08-09T03:16:38.227Z,12
2017-08-09T03:17:38.226Z,16
2017-08-09T03:18:38.553Z,20
2017-08-09T03:19:38.528Z,20
2017-08-09T03:20:38.219Z,28
2017-08-09T03:21:38.520Z,32
2017-08-09T03:22:38.197Z,36
2017-08-09T03:23:38.218Z,44
2017-08-09T03:24:38.205Z,52
2017-08-09T03:25:38.571Z,56
2017-08-09T03:26:38.532Z,68
2017-08-09T03:27:38.208Z,76
2017-08-09T03:28:38.208Z,84
2017-08-09T03:29:38.511Z,92
2017-08-09T03:30:38.532Z,100
2017-08-09T03:31:38.198Z,108
2017-08-09T03:32:38.207Z,112
2017-08-09T03:33:38.187Z,112
2017-08-09T03:34:38.196Z,112
2017-08-09T03:35:38.503Z,116
2017-08-09T03:36:38.193Z,124
2017-08-09T03:37:38.174Z,132
2017-08-09T03:38:38.191Z,140
2017-08-09T03:39:38.174Z,152
2017-08-09T03:40:38.494Z,172
2017-08-09T03:41:38.186Z,192
2017-08-09T03:42:38.469Z,212
2017-08-09T03:43:38.157Z,236
2017-08-09T03:44:38.477Z,252
2017-08-09T03:45:38.166Z,280
2017-08-09T03:46:38.461Z,336
2017-08-09T03:47:38.161Z,416
2017-08-09T03:48:38.153Z,516
2017-08-09T03:49:38.477Z,608
2017-08-09T03:50:38.442Z,684
2017-08-09T03:51:38.455Z,728
2017-08-09T03:52:38.449Z,780
2017-08-09T03:53:38.144Z,840
2017-08-09T03:54:38.431Z,896
2017-08-09T03:55:38.457Z,944
2017-08-09T03:56:38.461Z,1004
2017-08-09T03:57:38.451Z,1040
2017-08-09T03:58:38.421Z,1048
2017-08-09T03:59:38.430Z,1068
2017-08-09T04:00:38.407Z,1112
2017-08-09T04:01:38.447Z,1124
2017-08-09T04:02:38.409Z,1124
2017-08-09T04:03:38.452Z,1168
2017-08-09T04:04:38.412Z,1272
2017-08-09T04:05:38.430Z,1384
2017-08-09T04:06:38.414Z,1472
2017-08-09T04:07:38.402Z,1532
2017-08-09T04:08:38.659Z,1684
2017-08-09T04:09:38.421Z,1904
2017-08-09T04:10:38.429Z,2100
2017-08-09T04:11:38.093Z,2212
2017-08-09T04:12:38.087Z,2284
2017-08-09T04:13:38.383Z,2380
2017-08-09T04:14:38.406Z,2468
2017-08-09T04:15:38.392Z,2504
2017-08-09T04:16:38.395Z,2500
2017-08-09T04:17:38.067Z,2472
2017-08-09T04:18:38.399Z,2484
2017-08-09T04:19:38.395Z,2508
2017-08-09T04:20:38.370Z,2580
2017-08-09T04:21:38.392Z,2760
2017-08-09T04:22:38.350Z,2988
2017-08-09T04:23:38.382Z,3256
2017-08-09T04:24:38.363Z,3520
2017-08-09T04:25:38.378Z,3708
2017-08-09T04:26:38.371Z,3764
2017-08-09T04:27:38.053Z,3800
2017-08-09T04:28:38.043Z,3884
2017-08-09T04:29:46.814Z,4160
2017-08-09T04:30:38.070Z,4304
2017-08-09T04:31:38.357Z,4364
2017-08-09T04:32:38.036Z,4436
2017-08-09T04:33:38.060Z,4464
2017-08-09T04:34:38.326Z,4548
2017-08-09T04:35:38.358Z,4676
2017-08-09T04:36:38.330Z,4772
2017-08-09T04:37:38.041Z,4800
2017-08-09T04:38:38.328Z,4840
2017-08-09T04:39:38.337Z,4852
2017-08-09T04:40:38.322Z,4736
2017-08-09T04:41:38.333Z,4648
2017-08-09T04:42:38.021Z,4556
2017-08-09T04:43:38.325Z,4492
2017-08-09T04:44:38.312Z,4424
2017-08-09T04:45:38.025Z,4432
2017-08-09T04:46:38.313Z,4540
2017-08-09T04:47:38.025Z,4876
2017-08-09T04:48:38.315Z,5968
2017-08-09T04:49:38.012Z,7308
2017-08-09T04:50:38.311Z,9008
2017-08-09T04:51:38.318Z,11108
2017-08-09T04:52:38.317Z,11928
2017-08-09T04:53:38.311Z,12740
2017-08-09T04:54:38.279Z,12900
2017-08-09T04:55:38.316Z,12600
2017-08-09T04:56:38.295Z,8356
2017-08-09T04:57:38.318Z,4564
2017-08-09T04:58:38.319Z,4616
2017-08-09T04:59:38.320Z,4968
2017-08-09T05:00:38.292Z,5416
2017-08-09T05:01:38.283Z,6368
2017-08-09T05:02:38.308Z,8304
2017-08-09T05:03:38.308Z,8228
2017-08-09T05:04:38.320Z,9920
2017-08-09T05:05:38.277Z,12096
2017-08-09T05:06:38.307Z,13652
2017-08-09T05:07:38.300Z,12976
2017-08-09T05:08:38.299Z,9860
2017-08-09T05:09:38.298Z,8524
2017-08-09T05:10:38.318Z,14132
2017-08-09T05:11:38.307Z,17056
2017-08-09T05:12:37.985Z,18880
2017-08-09T05:13:38.317Z,19200
2017-08-09T05:14:38.329Z,19232
2017-08-09T05:15:38.312Z,20640
2017-08-09T05:16:38.308Z,21344
2017-08-09T05:17:38.291Z,20832
2017-08-09T05:18:38.022Z,20992
2017-08-09T05:19:38.007Z,21088
2017-08-09T05:20:38.337Z,21664
2017-08-09T05:21:38.319Z,21952
2017-08-09T05:22:38.356Z,21952
2017-08-09T05:23:38.338Z,21600
2017-08-09T05:24:38.341Z,22592
2017-08-09T05:25:38.343Z,23040
2017-08-09T05:26:38.357Z,21024
2017-08-09T05:27:38.069Z,16032
2017-08-09T05:28:38.372Z,22208
2017-08-09T05:29:38.053Z,22944
2017-08-09T05:30:38.369Z,23200
2017-08-09T05:31:38.698Z,23712
2017-08-09T05:32:38.407Z,23072
2017-08-09T05:33:38.418Z,23520
2017-08-09T05:34:38.419Z,23136
2017-08-09T05:35:38.118Z,22304
2017-08-09T05:36:38.443Z,23264
2017-08-09T05:37:38.423Z,24352
2017-08-09T05:38:38.445Z,24000
2017-08-09T05:39:38.137Z,20672
2017-08-09T05:40:38.475Z,25312
2017-08-09T05:41:38.478Z,24480
2017-08-09T05:42:38.506Z,24096
2017-08-09T05:43:38.225Z,22944
2017-08-09T05:44:38.506Z,21024
2017-08-09T05:45:38.510Z,20832
2017-08-09T05:46:38.502Z,25856
2017-08-09T05:47:38.533Z,26720
2017-08-09T05:48:38.536Z,26592
2017-08-09T05:49:38.554Z,29152
2017-08-09T05:50:38.237Z,30016
2017-08-09T05:51:38.573Z,29568
2017-08-09T05:52:38.266Z,30528
2017-08-09T05:53:38.604Z,31840
2017-08-09T05:54:38.583Z,32032
2017-08-09T05:55:38.316Z,23904
2017-08-09T05:56:38.651Z,24064
2017-08-09T05:57:38.331Z,22112
2017-08-09T05:58:38.624Z,32000
2017-08-09T05:59:38.669Z,32736
2017-08-09T06:00:38.356Z,15068
2017-08-09T06:01:38.375Z,10636
2017-08-09T06:02:38.691Z,19680
2017-08-09T06:03:38.709Z,36576
2017-08-09T06:04:38.722Z,12388
2017-08-09T06:05:38.431Z,34976
2017-08-09T06:06:38.720Z,35904
2017-08-09T06:07:38.764Z,38880
2017-08-09T06:08:38.449Z,39200
2017-08-09T06:09:38.478Z,36768
2017-08-09T06:10:38.469Z,34912
2017-08-09T06:11:38.490Z,36960
2017-08-09T06:12:38.807Z,40800
2017-08-09T06:13:38.831Z,40320
2017-08-09T06:14:38.818Z,35776
2017-08-09T06:15:38.845Z,32832
2017-08-09T06:16:38.847Z,33152
2017-08-09T06:17:38.877Z,33920
2017-08-09T06:18:38.898Z,33760
2017-08-09T06:19:38.889Z,33888
2017-08-09T06:20:38.902Z,35008
2017-08-09T06:21:38.913Z,35008
2017-08-09T06:22:38.936Z,33280
2017-08-09T06:23:39.049Z,31008
2017-08-09T06:24:38.974Z,29440
2017-08-09T06:25:38.958Z,29632
2017-08-09T06:26:38.673Z,30048
2017-08-09T06:27:38.997Z,30720
2017-08-09T06:28:39.007Z,31040
2017-08-09T06:29:38.730Z,30464
2017-08-09T06:30:39.008Z,29568
2017-08-09T06:31:38.743Z,29728
2017-08-09T06:33:38.454Z,30048
2017-08-09T06:34:39.090Z,24128
2017-08-09T06:35:38.480Z,33088
2017-08-09T06:36:39.137Z,35104
2017-08-09T06:37:39.126Z,38560
2017-08-09T06:38:38.851Z,42816
2017-08-09T06:39:38.842Z,46144
2017-08-09T06:40:39.195Z,48256
2017-08-09T06:41:38.586Z,51168
2017-08-09T06:42:38.904Z,54880
2017-08-09T06:43:38.905Z,59648
2017-08-09T06:44:39.251Z,66464
2017-08-09T06:45:38.943Z,66848
2017-08-09T06:46:38.970Z,26144
2017-08-09T06:47:39.291Z,30528
2017-08-09T06:48:38.679Z,26816
2017-08-09T06:49:39.348Z,26848
2017-08-09T06:50:39.312Z,54208
2017-08-09T06:51:39.368Z,51136
2017-08-09T06:52:39.352Z,75776
2017-08-09T06:53:39.369Z,82560
2017-08-09T06:54:39.549Z,93920
2017-08-09T06:55:39.105Z,94528
2017-08-09T06:56:39.443Z,53312
2017-08-09T06:57:39.448Z,59840
2017-08-09T06:58:39.464Z,45440
2017-08-09T06:59:39.466Z,35008
2017-08-09T07:00:39.163Z,36064
2017-08-09T07:01:39.478Z,28000
2017-08-09T07:02:39.212Z,37920
2017-08-09T07:03:39.539Z,28544
2017-08-09T07:04:39.552Z,29792
2017-08-09T07:05:39.554Z,30400
2017-08-09T07:06:39.262Z,31488
2017-08-09T07:07:39.605Z,33280
2017-08-09T07:08:39.610Z,39072
2017-08-09T07:09:39.638Z,56160
2017-08-09T07:10:39.634Z,60160
2017-08-09T07:11:39.665Z,62816
2017-08-09T07:12:39.641Z,61376
2017-08-09T07:13:39.043Z,59072
2017-08-09T07:14:39.673Z,53760
2017-08-09T07:15:39.713Z,54016
2017-08-09T07:16:39.721Z,49184
2017-08-09T07:17:39.752Z,41856
2017-08-09T07:18:39.102Z,40864
2017-08-09T07:19:39.771Z,39264
2017-08-09T07:20:39.774Z,44384
2017-08-09T07:21:39.480Z,44032
2017-08-09T07:22:39.796Z,46176
2017-08-09T07:23:39.832Z,45728
2017-08-09T07:24:39.825Z,42208
2017-08-09T07:25:39.854Z,40288
2017-08-09T07:26:39.538Z,36960
2017-08-09T07:27:39.898Z,36704
2017-08-09T07:28:39.566Z,37728
2017-08-09T07:29:39.912Z,38080
2017-08-09T07:30:39.933Z,36960
2017-08-09T07:31:39.948Z,40000
2017-08-09T07:32:39.960Z,38592
2017-08-09T07:33:39.964Z,31264
2017-08-09T07:34:39.964Z,30368
2017-08-09T07:35:39.667Z,37728
2017-08-09T07:36:39.705Z,41088
2017-08-09T07:37:40.025Z,40512
2017-08-09T07:38:40.040Z,39584
2017-08-09T07:39:39.769Z,30368
2017-08-09T07:40:39.777Z,25184
2017-08-09T07:41:39.767Z,39040
2017-08-09T07:42:40.111Z,41248
2017-08-09T07:43:40.105Z,50400
2017-08-09T07:44:40.125Z,58784
2017-08-09T07:45:40.158Z,58784
2017-08-09T07:46:40.148Z,57824
2017-08-09T07:47:40.177Z,57920
2017-08-09T07:48:39.564Z,59424
2017-08-09T07:49:40.194Z,28896
2017-08-09T07:50:39.887Z,40480
2017-08-09T07:51:40.228Z,30176
2017-08-09T07:52:39.922Z,27680
2017-08-09T07:53:40.252Z,33216
2017-08-09T07:54:39.963Z,44832
2017-08-09T07:55:39.973Z,56480
2017-08-09T07:56:40.289Z,60320
2017-08-09T07:57:40.011Z,76640
2017-08-09T07:58:40.306Z,96992
2017-08-09T07:59:40.034Z,111616
2017-08-09T08:00:40.348Z,107744
2017-08-09T08:01:40.394Z,101408
2017-08-09T08:02:40.051Z,95040
2017-08-09T08:03:39.773Z,85024
2017-08-09T08:04:40.087Z,69216
2017-08-09T08:05:40.424Z,62720
2017-08-09T08:06:40.438Z,49600
2017-08-09T08:07:40.446Z,45856
2017-08-09T08:08:40.474Z,36032
2017-08-09T08:09:40.504Z,32704
2017-08-09T08:10:40.502Z,29184
2017-08-09T08:11:40.523Z,33184
2017-08-09T08:12:40.226Z,37184
2017-08-09T08:13:40.568Z,31872
2017-08-09T08:14:40.537Z,31424
2017-08-09T08:15:40.592Z,27424
2017-08-09T08:16:40.601Z,24576
2017-08-09T08:17:39.997Z,23680
2017-08-09T08:18:40.308Z,24896
2017-08-09T08:19:40.342Z,25408
2017-08-09T08:20:40.674Z,27936
2017-08-09T08:21:40.372Z,31392
2017-08-09T08:22:40.676Z,30176
2017-08-09T08:23:40.687Z,29088
2017-08-09T08:24:40.707Z,28800
2017-08-09T08:25:40.734Z,27680
2017-08-09T08:26:40.746Z,28384
2017-08-09T08:27:40.738Z,27904
2017-08-09T08:28:40.766Z,27584
2017-08-09T08:29:40.451Z,27680
2017-08-09T08:30:40.780Z,29152
2017-08-09T08:31:40.766Z,29568
2017-08-09T08:32:40.809Z,29696
2017-08-09T08:33:40.821Z,29024
2017-08-09T08:34:40.842Z,27264
2017-08-09T08:35:40.825Z,25632
2017-08-09T08:36:40.854Z,28064
2017-08-09T08:37:40.236Z,33024
2017-08-09T08:38:40.853Z,30400
2017-08-09T08:39:40.873Z,39872
2017-08-09T08:40:40.895Z,58560
2017-08-09T08:41:40.603Z,76672
2017-08-09T08:42:40.615Z,78784
2017-08-09T08:43:40.921Z,29600
2017-08-09T08:44:40.920Z,70144
2017-08-09T08:45:40.917Z,41536
2017-08-09T08:46:40.962Z,17192
2017-08-09T08:47:40.637Z,16356
2017-08-09T08:48:40.983Z,16804
2017-08-09T08:49:40.674Z,15172
2017-08-09T08:50:41.012Z,14964
2017-08-09T08:51:40.989Z,15640
2017-08-09T08:52:41.006Z,17092
2017-08-09T08:53:40.960Z,17516
2017-08-09T08:54:41.046Z,17544
2017-08-09T08:55:41.062Z,16992
2017-08-09T08:56:41.064Z,16444
2017-08-09T08:57:41.053Z,17196
2017-08-09T08:58:40.784Z,16504
2017-08-09T08:59:41.101Z,16616
2017-08-09T09:00:41.090Z,16656
2017-08-09T09:01:41.087Z,14704
2017-08-09T09:02:40.814Z,13672
2017-08-09T09:03:41.123Z,14456
2017-08-09T09:04:41.141Z,13920
2017-08-09T09:05:41.120Z,14784
2017-08-09T09:06:41.141Z,14444
2017-08-09T09:07:40.836Z,13616
2017-08-09T09:08:41.147Z,13748
2017-08-09T09:09:41.162Z,14436
2017-08-09T09:10:41.178Z,15284
2017-08-09T09:11:41.189Z,15296
2017-08-09T09:12:41.182Z,16168
2017-08-09T09:13:41.193Z,16512
2017-08-09T09:14:41.194Z,16664
2017-08-09T09:15:41.218Z,16532
2017-08-09T09:16:41.225Z,15132
2017-08-09T09:17:40.950Z,14900
2017-08-09T09:18:40.917Z,14388
2017-08-09T09:19:41.226Z,13520
2017-08-09T09:20:41.230Z,13116
2017-08-09T09:21:40.949Z,12580
2017-08-09T09:22:41.247Z,12356
2017-08-09T09:23:40.969Z,12204
2017-08-09T09:24:41.260Z,12096
2017-08-09T09:25:41.278Z,13032
2017-08-09T09:26:41.298Z,12400
2017-08-09T09:27:41.292Z,11252
2017-08-09T09:28:41.306Z,10712
2017-08-09T09:29:40.712Z,10412
2017-08-09T09:30:41.300Z,10184
2017-08-09T09:31:41.333Z,10172
2017-08-09T09:32:41.326Z,10348
2017-08-09T09:33:41.345Z,10444
2017-08-09T09:34:41.033Z,10472
2017-08-09T09:35:41.039Z,10364
2017-08-09T09:36:41.341Z,10264
2017-08-09T09:37:41.064Z,10140
2017-08-09T09:38:41.363Z,10188
2017-08-09T09:39:41.381Z,10496
2017-08-09T09:40:41.372Z,10484
2017-08-09T09:41:41.363Z,11168
2017-08-09T09:42:41.414Z,11924
2017-08-09T09:43:41.079Z,11072
2017-08-09T09:44:41.376Z,11296
2017-08-09T09:45:41.399Z,11604
2017-08-09T09:46:41.410Z,11712
2017-08-09T09:47:41.105Z,11852
2017-08-09T09:48:41.427Z,11724
2017-08-09T09:49:41.427Z,12184
2017-08-09T09:50:41.104Z,11988
2017-08-09T09:51:41.166Z,10764
2017-08-09T09:52:41.426Z,10192
2017-08-09T09:53:41.431Z,9760
2017-08-09T09:54:41.458Z,9372
2017-08-09T09:55:41.130Z,10224
2017-08-09T09:56:41.442Z,10844
2017-08-09T09:57:41.456Z,10696
2017-08-09T09:58:41.478Z,9744
2017-08-09T09:59:41.169Z,9016
2017-08-09T10:00:41.477Z,8832
2017-08-09T10:01:41.473Z,8716
2017-08-09T10:02:41.457Z,8620
2017-08-09T10:03:41.174Z,8464
2017-08-09T10:04:41.194Z,8364
2017-08-09T10:05:41.182Z,9612
2017-08-09T10:06:41.488Z,8740
2017-08-09T10:07:41.517Z,7992
2017-08-09T10:08:41.513Z,7760
2017-08-09T10:09:41.520Z,7388
2017-08-09T10:10:41.201Z,7444
2017-08-09T10:11:41.546Z,7924
2017-08-09T10:12:41.542Z,8400
2017-08-09T10:13:41.529Z,8696
2017-08-09T10:14:41.561Z,8964
2017-08-09T10:15:41.532Z,8896
2017-08-09T10:16:41.569Z,9232
2017-08-09T10:17:41.565Z,9252
2017-08-09T10:18:41.237Z,9056
2017-08-09T10:19:41.599Z,8740
2017-08-09T10:20:41.570Z,7876
2017-08-09T10:21:41.589Z,7492
2017-08-09T10:22:41.275Z,7176
2017-08-09T10:23:41.586Z,6976
2017-08-09T10:24:41.566Z,6892
2017-08-09T10:25:40.974Z,6888
2017-08-09T10:26:40.955Z,7000
2017-08-09T10:27:41.604Z,7344
2017-08-09T10:28:41.295Z,7576
2017-08-09T10:29:41.292Z,7168
2017-08-09T10:30:40.990Z,7200
2017-08-09T10:31:41.601Z,7156
2017-08-09T10:32:41.005Z,7132
2017-08-09T10:33:41.629Z,6996
2017-08-09T10:34:41.347Z,6908
2017-08-09T10:35:41.618Z,6880
2017-08-09T10:36:41.628Z,7176
2017-08-09T10:37:41.624Z,7172
2017-08-09T10:38:41.646Z,7916
2017-08-09T10:39:41.630Z,8532
2017-08-09T10:40:41.647Z,7476
2017-08-09T10:41:41.638Z,7112
2017-08-09T10:42:41.658Z,7556
2017-08-09T10:43:41.341Z,9400
2017-08-09T10:44:41.681Z,9156
2017-08-09T10:45:41.669Z,8004
2017-08-09T10:46:41.357Z,7504
2017-08-09T10:47:41.676Z,7236
2017-08-09T10:48:41.382Z,7340
2017-08-09T10:49:41.679Z,7328
2017-08-09T10:50:41.700Z,7456
2017-08-09T10:51:41.686Z,7468
2017-08-09T10:52:41.696Z,7976
2017-08-09T10:53:41.688Z,8936
2017-08-09T10:54:41.706Z,8456
2017-08-09T10:55:41.699Z,7832
2017-08-09T10:56:41.710Z,8560
2017-08-09T10:57:41.720Z,8156
2017-08-09T10:58:41.712Z,8008
2017-08-09T10:59:41.700Z,9884
2017-08-09T11:00:41.718Z,12764
2017-08-09T11:01:41.720Z,12552
2017-08-09T11:02:41.736Z,12932
2017-08-09T11:03:41.737Z,13100
2017-08-09T11:04:41.748Z,12668
2017-08-09T11:05:41.733Z,11472
2017-08-09T11:06:41.743Z,9512
2017-08-09T11:07:41.753Z,8768
2017-08-09T11:08:41.759Z,8904
2017-08-09T11:09:41.740Z,9516
2017-08-09T11:10:41.462Z,8692
2017-08-09T11:11:41.949Z,8192
2017-08-09T11:12:41.781Z,7884
2017-08-09T11:13:41.794Z,7980
2017-08-09T11:14:41.794Z,8984
2017-08-09T11:15:41.765Z,9228
2017-08-09T11:16:41.786Z,8700
2017-08-09T11:17:41.464Z,8600
2017-08-09T11:18:41.807Z,8024
2017-08-09T11:19:41.502Z,8516
2017-08-09T11:20:41.812Z,8392
2017-08-09T11:21:41.492Z,7232
2017-08-09T11:22:41.843Z,7868
2017-08-09T11:23:41.506Z,10764
2017-08-09T11:24:41.819Z,11700
2017-08-09T11:25:41.816Z,10224
2017-08-09T11:26:41.853Z,9032
2017-08-09T11:27:41.830Z,8100
2017-08-09T11:28:41.541Z,7840
2017-08-09T11:29:41.533Z,7940
2017-08-09T11:30:41.554Z,8648
2017-08-09T11:31:41.852Z,9332
2017-08-09T11:32:41.867Z,8552
2017-08-09T11:33:41.857Z,7772
2017-08-09T11:34:41.566Z,8896
2017-08-09T11:35:41.877Z,9588
2017-08-09T11:36:41.886Z,9836
2017-08-09T11:37:41.883Z,9768
2017-08-09T11:38:41.892Z,9616
2017-08-09T11:39:41.888Z,9488
2017-08-09T11:40:41.589Z,9064
2017-08-09T11:41:41.909Z,8864
2017-08-09T11:42:41.917Z,8768
2017-08-09T11:43:41.594Z,9820
2017-08-09T11:44:41.618Z,11208
2017-08-09T11:45:41.606Z,11244
2017-08-09T11:46:41.621Z,10368
2017-08-09T11:47:41.935Z,9664
2017-08-09T11:48:41.919Z,9332
2017-08-09T11:49:41.925Z,9028
2017-08-09T11:50:41.642Z,8604
2017-08-09T11:51:41.971Z,7952
2017-08-09T11:52:41.645Z,7312
2017-08-09T11:53:41.636Z,7724
2017-08-09T11:54:41.949Z,8812
2017-08-09T11:55:41.358Z,11052
2017-08-09T11:56:41.651Z,12244
2017-08-09T11:57:41.986Z,11092
2017-08-09T11:58:41.958Z,10424
2017-08-09T11:59:41.999Z,9632
2017-08-09T12:00:41.990Z,9068
2017-08-09T12:01:41.682Z,8944
2017-08-09T12:02:42.007Z,10312
2017-08-09T12:03:41.676Z,12512
2017-08-09T12:04:41.687Z,12956
2017-08-09T12:05:42.025Z,12168
2017-08-09T12:06:42.034Z,10736
2017-08-09T12:07:42.015Z,9360
2017-08-09T12:08:42.030Z,9316
2017-08-09T12:09:42.022Z,11224
2017-08-09T12:10:42.024Z,13008
2017-08-09T12:11:41.735Z,14236
2017-08-09T12:12:42.046Z,13992
2017-08-09T12:13:42.075Z,12788
2017-08-09T12:14:42.044Z,11660
2017-08-09T12:15:42.066Z,10280
2017-08-09T12:16:42.067Z,8908
2017-08-09T12:17:42.100Z,9556
2017-08-09T12:18:42.060Z,10660
2017-08-09T12:19:41.792Z,10844
2017-08-09T12:20:42.104Z,9512
2017-08-09T12:21:42.095Z,7896
2017-08-09T12:22:42.083Z,7488
2017-08-09T12:23:42.104Z,7300
2017-08-09T12:24:42.122Z,7232
2017-08-09T12:25:42.110Z,6880
2017-08-09T12:26:42.109Z,7376
2017-08-09T12:27:42.152Z,8728
2017-08-09T12:28:42.116Z,8132
2017-08-09T12:29:42.148Z,7684
2017-08-09T12:30:42.139Z,7668
2017-08-09T12:31:42.403Z,7312
2017-08-09T12:32:41.832Z,6848
2017-08-09T12:33:42.169Z,6672
2017-08-09T12:34:42.199Z,6572
2017-08-09T12:35:42.167Z,6448
2017-08-09T12:36:42.170Z,6464
2017-08-09T12:37:42.177Z,6440
2017-08-09T12:38:42.167Z,6320
2017-08-09T12:39:42.179Z,6304
2017-08-09T12:40:42.183Z,6152
2017-08-09T12:41:42.198Z,6164
2017-08-09T12:42:42.214Z,6312
2017-08-09T12:43:42.206Z,6136
2017-08-09T12:44:42.211Z,5776
2017-08-09T12:45:42.211Z,7300
2017-08-09T12:46:42.225Z,9372
2017-08-09T12:47:42.207Z,9060
2017-08-09T12:48:42.229Z,8644
2017-08-09T12:49:42.234Z,8568
2017-08-09T12:50:42.287Z,9816
2017-08-09T12:51:42.226Z,10900
2017-08-09T12:52:42.240Z,9484
2017-08-09T12:53:42.261Z,9132
2017-08-09T12:54:42.226Z,11000
2017-08-09T12:55:41.945Z,10688
2017-08-09T12:56:41.951Z,12256
2017-08-09T12:57:41.963Z,12124
2017-08-09T12:58:41.969Z,11744
2017-08-09T12:59:42.263Z,12668
2017-08-09T13:00:42.267Z,11972
2017-08-09T13:01:41.974Z,10696
2017-08-09T13:02:41.996Z,9640
2017-08-09T13:03:41.970Z,9952
2017-08-09T13:04:42.000Z,9960
2017-08-09T13:05:42.004Z,9244
2017-08-09T13:06:42.001Z,8652
2017-08-09T13:07:41.987Z,8352
2017-08-09T13:08:41.696Z,8244
2017-08-09T13:09:42.007Z,8116
2017-08-09T13:10:42.010Z,8720
2017-08-09T13:11:42.029Z,9924
2017-08-09T13:12:42.027Z,11184
2017-08-09T13:13:42.028Z,10456
2017-08-09T13:14:42.010Z,10248
2017-08-09T13:15:42.040Z,10080
2017-08-09T13:16:42.050Z,9260
2017-08-09T13:17:42.037Z,8444
2017-08-09T13:18:42.002Z,8280
2017-08-09T13:19:42.045Z,8668
2017-08-09T13:20:42.412Z,8580
2017-08-09T13:21:42.063Z,8188
2017-08-09T13:22:42.391Z,7612
2017-08-09T13:23:42.066Z,7144
2017-08-09T13:24:42.392Z,7312
2017-08-09T13:25:42.097Z,8496
2017-08-09T13:26:42.103Z,9588
2017-08-09T13:27:42.095Z,10936
2017-08-09T13:28:42.354Z,11232
2017-08-09T13:29:41.799Z,11064